sensor_id;sensor_type;location;lat;lon;timestamp;pressure;altitude;pressure_sealevel;temperature;humidity
39449;BME280;25151;45.566;9.382;2022-07-31T00:02:16;99745.44;;;28.30;43.92
39449;BME280;25151;45.566;9.382;2022-07-31T00:05:17;99749.56;;;28.29;44.15
39449;BME280;25151;45.566;9.382;2022-07-31T00:08:17;99733.31;;;28.30;43.81
39449;BME280;25151;45.566;9.382;2022-07-31T00:11:18;99745.44;;;28.30;44.12
39449;BME280;25151;45.566;9.382;2022-07-31T00:14:18;99741.81;;;28.30;43.78
39449;BME280;25151;45.566;9.382;2022-07-31T00:17:19;99746.22;;;28.31;44.34
39449;BME280;25151;45.566;9.382;2022-07-31T00:20:19;99734.59;;;28.29;44.08
39449;BME280;25151;45.566;9.382;2022-07-31T00:23:20;99746.22;;;28.31;44.39
39449;BME280;25151;45.566;9.382;2022-07-31T00:26:21;99746.47;;;28.27;43.97
39449;BME280;25151;45.566;9.382;2022-07-31T00:29:22;99740.28;;;28.29;44.37
39449;BME280;25151;45.566;9.382;2022-07-31T00:32:22;99739.75;;;28.30;44.35
39449;BME280;25151;45.566;9.382;2022-07-31T00:35:23;99740.53;;;28.31;44.43
39449;BME280;25151;45.566;9.382;2022-07-31T00:38:23;99741.06;;;28.29;44.04
39449;BME280;25151;45.566;9.382;2022-07-31T00:41:24;99735.91;;;28.28;44.42
39449;BME280;25151;45.566;9.382;2022-07-31T00:44:25;99745.44;;;28.30;44.27
39449;BME280;25151;45.566;9.382;2022-07-31T00:47:25;99742.59;;;28.30;44.42
39449;BME280;25151;45.566;9.382;2022-07-31T00:50:26;99735.38;;;28.29;44.25
39449;BME280;25151;45.566;9.382;2022-07-31T00:53:27;99751.09;;;28.30;44.49
39449;BME280;25151;45.566;9.382;2022-07-31T00:56:28;99756.78;;;28.30;44.35
39449;BME280;25151;45.566;9.382;2022-07-31T00:59:29;99753.16;;;28.30;44.51
39449;BME280;25151;45.566;9.382;2022-07-31T01:02:30;99753.94;;;28.30;44.30
39449;BME280;25151;45.566;9.382;2022-07-31T01:05:30;99756.78;;;28.30;44.67
39449;BME280;25151;45.566;9.382;2022-07-31T01:08:31;99756.78;;;28.30;44.83
39449;BME280;25151;45.566;9.382;2022-07-31T01:11:37;99756.00;;;28.30;44.77
39449;BME280;25151;45.566;9.382;2022-07-31T01:14:49;99755.22;;;28.29;44.56
39449;BME280;25151;45.566;9.382;2022-07-31T01:17:51;99750.34;;;28.30;44.58
39449;BME280;25151;45.566;9.382;2022-07-31T01:20:55;99756.00;;;28.30;44.62
39449;BME280;25151;45.566;9.382;2022-07-31T01:31:08;99758.59;;;28.28;44.74
39449;BME280;25151;45.566;9.382;2022-07-31T01:34:15;99762.44;;;28.30;44.83
39449;BME280;25151;45.566;9.382;2022-07-31T01:37:28;99760.91;;;28.29;44.87
39449;BME280;25151;45.566;9.382;2022-07-31T01:40:33;99760.91;;;28.29;44.94
39449;BME280;25151;45.566;9.382;2022-07-31T01:43:40;99755.22;;;28.29;45.12
39449;BME280;25151;45.566;9.382;2022-07-31T01:46:42;99754.47;;;28.29;45.24
39449;BME280;25151;45.566;9.382;2022-07-31T01:49:45;99753.69;;;28.28;45.15
39449;BME280;25151;45.566;9.382;2022-07-31T01:52:47;99754.47;;;28.29;44.92
39449;BME280;25151;45.566;9.382;2022-07-31T01:55:50;99755.22;;;28.29;45.41
39449;BME280;25151;45.566;9.382;2022-07-31T01:58:53;99762.44;;;28.30;45.06
39449;BME280;25151;45.566;9.382;2022-07-31T02:01:55;99760.13;;;28.29;45.15
39449;BME280;25151;45.566;9.382;2022-07-31T02:04:57;99762.44;;;28.30;45.33
39449;BME280;25151;45.566;9.382;2022-07-31T02:08:02;99762.44;;;28.30;45.29
39449;BME280;25151;45.566;9.382;2022-07-31T02:11:04;99756.00;;;28.30;45.59
39449;BME280;25151;45.566;9.382;2022-07-31T02:14:05;99762.44;;;28.30;45.48
39449;BME280;25151;45.566;9.382;2022-07-31T02:17:07;99756.78;;;28.30;45.48
39449;BME280;25151;45.566;9.382;2022-07-31T02:20:09;99755.75;;;28.28;45.60
39449;BME280;25151;45.566;9.382;2022-07-31T02:23:10;99754.97;;;28.27;45.77
39449;BME280;25151;45.566;9.382;2022-07-31T02:26:13;99752.91;;;28.28;45.28
39449;BME280;25151;45.566;9.382;2022-07-31T02:29:19;99750.34;;;28.30;45.81
39449;BME280;25151;45.566;9.382;2022-07-31T02:32:21;99748.28;;;28.30;45.41
39449;BME280;25151;45.566;9.382;2022-07-31T02:35:23;99741.81;;;28.30;45.50
39449;BME280;25151;45.566;9.382;2022-07-31T02:38:26;99754.72;;;28.31;45.53
39449;BME280;25151;45.566;9.382;2022-07-31T02:41:27;99749.56;;;28.29;45.63
39449;BME280;25151;45.566;9.382;2022-07-31T02:44:30;99751.88;;;28.31;45.70
39449;BME280;25151;45.566;9.382;2022-07-31T02:47:35;99749.56;;;28.29;45.46
39449;BME280;25151;45.566;9.382;2022-07-31T02:50:36;99745.44;;;28.30;45.50
39449;BME280;25151;45.566;9.382;2022-07-31T02:53:37;99747.00;;;28.31;45.48
39449;BME280;25151;45.566;9.382;2022-07-31T02:56:38;99748.28;;;28.30;45.64
39449;BME280;25151;45.566;9.382;2022-07-31T02:59:40;99745.44;;;28.30;45.63
39449;BME280;25151;45.566;9.382;2022-07-31T03:02:41;99739.75;;;28.30;45.58
39449;BME280;25151;45.566;9.382;2022-07-31T03:05:41;99743.88;;;28.29;46.08
39449;BME280;25151;45.566;9.382;2022-07-31T03:08:42;99746.22;;;28.31;45.77
39449;BME280;25151;45.566;9.382;2022-07-31T03:11:43;99745.44;;;28.30;45.94
39449;BME280;25151;45.566;9.382;2022-07-31T03:14:44;99731.00;;;28.28;45.75
39449;BME280;25151;45.566;9.382;2022-07-31T03:17:46;99738.22;;;28.29;45.68
39449;BME280;25151;45.566;9.382;2022-07-31T03:20:47;99738.22;;;28.29;45.71
39449;BME280;25151;45.566;9.382;2022-07-31T03:23:51;99731.78;;;28.29;46.05
39449;BME280;25151;45.566;9.382;2022-07-31T03:26:52;99736.94;;;28.30;45.99
39449;BME280;25151;45.566;9.382;2022-07-31T03:29:53;99729.47;;;28.27;45.70
39449;BME280;25151;45.566;9.382;2022-07-31T03:32:56;99731.00;;;28.28;46.08
39449;BME280;25151;45.566;9.382;2022-07-31T03:35:57;99730.00;;;28.31;46.03
39449;BME280;25151;45.566;9.382;2022-07-31T03:38:58;99742.13;;;28.32;46.04
39449;BME280;25151;45.566;9.382;2022-07-31T03:42:00;99745.44;;;28.30;45.75
39449;BME280;25151;45.566;9.382;2022-07-31T03:45:03;99744.66;;;28.30;45.95
39449;BME280;25151;45.566;9.382;2022-07-31T03:48:05;99748.00;;;28.28;46.05
39449;BME280;25151;45.566;9.382;2022-07-31T03:51:08;99747.72;;;28.26;46.06
39449;BME280;25151;45.566;9.382;2022-07-31T03:54:08;99738.34;;;27.77;43.92
39449;BME280;25151;45.566;9.382;2022-07-31T03:57:09;99736.66;;;27.39;42.09
39449;BME280;25151;45.566;9.382;2022-07-31T04:00:11;99733.44;;;27.26;40.54
39449;BME280;25151;45.566;9.382;2022-07-31T04:03:18;99736.19;;;27.20;39.57
39449;BME280;25151;45.566;9.382;2022-07-31T04:06:19;99738.19;;;27.14;38.37
39449;BME280;25151;45.566;9.382;2022-07-31T04:09:20;99743.13;;;27.19;37.86
39449;BME280;25151;45.566;9.382;2022-07-31T04:12:21;99741.84;;;27.20;37.54
39449;BME280;25151;45.566;9.382;2022-07-31T04:15:22;99735.97;;;27.03;37.28
39449;BME280;25151;45.566;9.382;2022-07-31T04:18:22;99732.19;;;26.86;37.28
39449;BME280;25151;45.566;9.382;2022-07-31T04:21:23;99738.59;;;26.86;37.18
39449;BME280;25151;45.566;9.382;2022-07-31T04:24:23;99740.72;;;26.91;37.65
39449;BME280;25151;45.566;9.382;2022-07-31T04:27:25;99741.38;;;27.01;37.70
39449;BME280;25151;45.566;9.382;2022-07-31T04:30:25;99747.81;;;27.02;37.21
39449;BME280;25151;45.566;9.382;2022-07-31T04:33:26;99737.03;;;27.06;36.98
39449;BME280;25151;45.566;9.382;2022-07-31T04:36:26;99737.19;;;26.96;37.12
39449;BME280;25151;45.566;9.382;2022-07-31T04:39:27;99746.38;;;26.91;36.92
39449;BME280;25151;45.566;9.382;2022-07-31T04:42:28;99752.34;;;26.73;37.33
39449;BME280;25151;45.566;9.382;2022-07-31T04:45:29;99750.75;;;26.72;37.30
39449;BME280;25151;45.566;9.382;2022-07-31T04:48:30;99750.44;;;26.85;37.04
39449;BME280;25151;45.566;9.382;2022-07-31T04:51:30;99756.88;;;26.85;36.86
39449;BME280;25151;45.566;9.382;2022-07-31T04:54:32;99763.50;;;26.62;37.19
39449;BME280;25151;45.566;9.382;2022-07-31T04:57:34;99752.84;;;26.57;37.01
39449;BME280;25151;45.566;9.382;2022-07-31T05:00:34;99762.78;;;26.67;36.96
39449;BME280;25151;45.566;9.382;2022-07-31T05:03:35;99763.91;;;26.75;36.99
39449;BME280;25151;45.566;9.382;2022-07-31T05:06:46;99758.41;;;26.86;37.29
39449;BME280;25151;45.566;9.382;2022-07-31T05:09:47;99765.75;;;26.98;37.20
39449;BME280;25151;45.566;9.382;2022-07-31T05:12:48;99762.66;;;26.96;37.38
39449;BME280;25151;45.566;9.382;2022-07-31T05:15:48;99763.78;;;27.05;37.31
39449;BME280;25151;45.566;9.382;2022-07-31T05:18:50;99769.66;;;27.01;37.47
39449;BME280;25151;45.566;9.382;2022-07-31T05:21:51;99767.41;;;26.85;37.59
39449;BME280;25151;45.566;9.382;2022-07-31T05:24:52;99769.56;;;26.75;38.06
39449;BME280;25151;45.566;9.382;2022-07-31T05:27:55;99769.88;;;26.97;38.05
39449;BME280;25151;45.566;9.382;2022-07-31T05:30:56;99766.88;;;27.07;38.18
39449;BME280;25151;45.566;9.382;2022-07-31T05:33:56;99757.22;;;26.93;37.96
39449;BME280;25151;45.566;9.382;2022-07-31T05:37:01;99761.75;;;26.85;38.27
39449;BME280;25151;45.566;9.382;2022-07-31T05:40:02;99761.97;;;26.81;37.68
39449;BME280;25151;45.566;9.382;2022-07-31T05:43:03;99762.22;;;26.83;37.70
39449;BME280;25151;45.566;9.382;2022-07-31T05:46:05;99766.03;;;26.80;37.79
39449;BME280;25151;45.566;9.382;2022-07-31T05:49:07;99758.63;;;26.83;37.74
39449;BME280;25151;45.566;9.382;2022-07-31T05:52:08;99759.13;;;26.81;37.64
39449;BME280;25151;45.566;9.382;2022-07-31T05:55:09;99760.38;;;26.80;38.13
39449;BME280;25151;45.566;9.382;2022-07-31T05:58:12;99760.81;;;26.73;37.83
39449;BME280;25151;45.566;9.382;2022-07-31T06:01:21;99764.34;;;26.68;38.07
39449;BME280;25151;45.566;9.382;2022-07-31T06:04:22;99771.56;;;26.69;38.27
39449;BME280;25151;45.566;9.382;2022-07-31T06:07:23;99761.44;;;26.62;38.14
39449;BME280;25151;45.566;9.382;2022-07-31T06:10:27;99758.31;;;26.60;38.15
39449;BME280;25151;45.566;9.382;2022-07-31T06:13:27;99765.59;;;26.67;37.65
39449;BME280;25151;45.566;9.382;2022-07-31T06:16:29;99767.09;;;26.62;37.36
39449;BME280;25151;45.566;9.382;2022-07-31T06:19:31;99778.19;;;26.66;37.09
39449;BME280;25151;45.566;9.382;2022-07-31T06:22:34;99778.34;;;26.77;36.74
39449;BME280;25151;45.566;9.382;2022-07-31T06:25:35;99777.16;;;26.84;36.85
39449;BME280;25151;45.566;9.382;2022-07-31T06:28:35;99777.81;;;26.93;36.72
39449;BME280;25151;45.566;9.382;2022-07-31T06:31:36;99787.06;;;26.94;36.38
39449;BME280;25151;45.566;9.382;2022-07-31T06:34:36;99773.38;;;26.92;36.44
39449;BME280;25151;45.566;9.382;2022-07-31T06:37:37;99779.91;;;26.78;36.30
39449;BME280;25151;45.566;9.382;2022-07-31T06:40:38;99782.59;;;26.87;36.31
39449;BME280;25151;45.566;9.382;2022-07-31T06:43:38;99781.56;;;26.85;36.63
39449;BME280;25151;45.566;9.382;2022-07-31T06:46:39;99789.69;;;26.77;36.87
39449;BME280;25151;45.566;9.382;2022-07-31T06:49:40;99790.38;;;26.92;36.58
39449;BME280;25151;45.566;9.382;2022-07-31T06:52:40;99780.47;;;26.82;36.41
39449;BME280;25151;45.566;9.382;2022-07-31T06:55:41;99773.28;;;26.81;36.84
39449;BME280;25151;45.566;9.382;2022-07-31T06:58:42;99774.88;;;26.88;37.12
39449;BME280;25151;45.566;9.382;2022-07-31T07:01:43;99780.63;;;26.93;36.94
39449;BME280;25151;45.566;9.382;2022-07-31T07:04:44;99788.19;;;27.02;36.66
39449;BME280;25151;45.566;9.382;2022-07-31T07:07:44;99791.16;;;26.93;36.97
39449;BME280;25151;45.566;9.382;2022-07-31T07:10:45;99795.59;;;27.00;36.82
39449;BME280;25151;45.566;9.382;2022-07-31T07:13:45;99797.88;;;26.95;36.77
39449;BME280;25151;45.566;9.382;2022-07-31T07:16:46;99795.19;;;27.07;36.91
39449;BME280;25151;45.566;9.382;2022-07-31T07:19:46;99782.75;;;26.98;36.85
39449;BME280;25151;45.566;9.382;2022-07-31T07:22:48;99803.00;;;27.12;36.79
39449;BME280;25151;45.566;9.382;2022-07-31T07:25:49;99793.34;;;27.04;36.68
39449;BME280;25151;45.566;9.382;2022-07-31T07:28:50;99798.53;;;27.05;36.86
39449;BME280;25151;45.566;9.382;2022-07-31T07:31:51;99794.81;;;27.14;36.86
39449;BME280;25151;45.566;9.382;2022-07-31T07:34:51;99793.81;;;27.17;37.03
39449;BME280;25151;45.566;9.382;2022-07-31T07:37:52;99802.78;;;27.15;37.03
39449;BME280;25151;45.566;9.382;2022-07-31T07:40:53;99792.78;;;27.20;36.85
39449;BME280;25151;45.566;9.382;2022-07-31T07:43:53;99792.38;;;27.27;37.10
39449;BME280;25151;45.566;9.382;2022-07-31T07:46:54;99797.59;;;27.34;36.73
39449;BME280;25151;45.566;9.382;2022-07-31T07:49:55;99789.41;;;27.36;37.09
39449;BME280;25151;45.566;9.382;2022-07-31T07:52:56;99785.28;;;27.37;36.90
39449;BME280;25151;45.566;9.382;2022-07-31T07:55:57;99784.88;;;27.44;37.11
39449;BME280;25151;45.566;9.382;2022-07-31T07:58:58;99789.50;;;27.48;37.48
39449;BME280;25151;45.566;9.382;2022-07-31T08:01:58;99782.03;;;27.44;37.36
39449;BME280;25151;45.566;9.382;2022-07-31T08:04:59;99792.63;;;27.50;37.31
39449;BME280;25151;45.566;9.382;2022-07-31T08:08:00;99786.19;;;27.49;37.46
39449;BME280;25151;45.566;9.382;2022-07-31T08:11:01;99787.53;;;27.54;37.37
39449;BME280;25151;45.566;9.382;2022-07-31T08:14:04;99787.00;;;27.55;37.71
39449;BME280;25151;45.566;9.382;2022-07-31T08:17:10;99781.88;;;27.54;37.67
39449;BME280;25151;45.566;9.382;2022-07-31T08:20:11;99788.84;;;27.58;37.85
39449;BME280;25151;45.566;9.382;2022-07-31T08:23:12;99779.59;;;27.58;37.74
39449;BME280;25151;45.566;9.382;2022-07-31T08:26:12;99779.84;;;27.60;37.97
39449;BME280;25151;45.566;9.382;2022-07-31T08:29:13;99784.75;;;27.59;37.66
39449;BME280;25151;45.566;9.382;2022-07-31T08:32:13;99782.69;;;27.60;38.26
39449;BME280;25151;45.566;9.382;2022-07-31T08:35:14;99784.53;;;27.63;38.07
39449;BME280;25151;45.566;9.382;2022-07-31T08:38:16;99784.81;;;27.65;38.29
39449;BME280;25151;45.566;9.382;2022-07-31T08:41:17;99786.66;;;27.68;38.50
39449;BME280;25151;45.566;9.382;2022-07-31T08:44:18;99787.44;;;27.68;38.32
39449;BME280;25151;45.566;9.382;2022-07-31T08:47:20;99788.47;;;27.71;38.67
39449;BME280;25151;45.566;9.382;2022-07-31T08:50:22;99798.53;;;27.72;38.94
39449;BME280;25151;45.566;9.382;2022-07-31T08:53:25;99795.22;;;27.74;39.00
39449;BME280;25151;45.566;9.382;2022-07-31T08:56:28;99789.56;;;27.74;38.89
39449;BME280;25151;45.566;9.382;2022-07-31T08:59:29;99794.72;;;27.75;39.37
39449;BME280;25151;45.566;9.382;2022-07-31T09:02:30;99789.34;;;27.77;39.26
39449;BME280;25151;45.566;9.382;2022-07-31T09:05:34;99788.06;;;27.78;39.48
39449;BME280;25151;45.566;9.382;2022-07-31T09:08:35;99793.72;;;27.78;39.44
39449;BME280;25151;45.566;9.382;2022-07-31T09:11:47;99779.56;;;27.78;39.73
39449;BME280;25151;45.566;9.382;2022-07-31T09:14:47;99788.34;;;27.80;39.50
39449;BME280;25151;45.566;9.382;2022-07-31T09:17:49;99785.78;;;27.82;39.83
39449;BME280;25151;45.566;9.382;2022-07-31T09:21:01;99774.44;;;27.82;39.63
39449;BME280;25151;45.566;9.382;2022-07-31T09:24:02;99783.22;;;27.84;39.96
39449;BME280;25151;45.566;9.382;2022-07-31T09:27:05;99773.44;;;27.85;39.76
39449;BME280;25151;45.566;9.382;2022-07-31T09:30:07;99775.00;;;27.86;39.88
39449;BME280;25151;45.566;9.382;2022-07-31T09:33:12;99782.19;;;27.87;40.29
39449;BME280;25151;45.566;9.382;2022-07-31T09:36:13;99780.94;;;27.88;40.03
39449;BME280;25151;45.566;9.382;2022-07-31T09:39:14;99776.31;;;27.91;40.53
39449;BME280;25151;45.566;9.382;2022-07-31T09:42:15;99769.09;;;27.90;40.42
39449;BME280;25151;45.566;9.382;2022-07-31T09:45:21;99778.66;;;27.92;40.62
39449;BME280;25151;45.566;9.382;2022-07-31T09:48:22;99768.09;;;27.93;40.31
39449;BME280;25151;45.566;9.382;2022-07-31T09:51:23;99764.75;;;27.94;40.13
39449;BME280;25151;45.566;9.382;2022-07-31T09:54:25;99762.97;;;27.97;40.63
39449;BME280;25151;45.566;9.382;2022-07-31T09:57:26;99763.75;;;27.98;40.48
39449;BME280;25151;45.566;9.382;2022-07-31T10:00:28;99762.75;;;28.01;40.85
39449;BME280;25151;45.566;9.382;2022-07-31T10:03:29;99758.38;;;28.00;40.44
39449;BME280;25151;45.566;9.382;2022-07-31T10:06:31;99755.53;;;28.00;40.74
39449;BME280;25151;45.566;9.382;2022-07-31T10:09:36;99745.75;;;28.01;40.87
39449;BME280;25151;45.566;9.382;2022-07-31T10:12:40;99752.19;;;28.01;40.73
39449;BME280;25151;45.566;9.382;2022-07-31T10:15:44;99754.50;;;28.03;41.22
39449;BME280;25151;45.566;9.382;2022-07-31T10:18:49;99754.50;;;28.03;41.01
39449;BME280;25151;45.566;9.382;2022-07-31T10:21:56;99752.97;;;28.02;40.78
39449;BME280;25151;45.566;9.382;2022-07-31T10:24:59;99749.38;;;28.07;40.96
39449;BME280;25151;45.566;9.382;2022-07-31T10:28:00;99750.16;;;28.07;41.35
39449;BME280;25151;45.566;9.382;2022-07-31T10:31:02;99750.97;;;28.08;41.04
39449;BME280;25151;45.566;9.382;2022-07-31T10:34:05;99747.63;;;28.09;41.17
39449;BME280;25151;45.566;9.382;2022-07-31T10:37:14;99744.78;;;28.09;41.44
39449;BME280;25151;45.566;9.382;2022-07-31T10:40:28;99729.53;;;28.07;41.35
39449;BME280;25151;45.566;9.382;2022-07-31T10:44:09;99733.97;;;28.08;41.04
39449;BME280;25151;45.566;9.382;2022-07-31T10:47:12;99724.16;;;28.09;41.50
39449;BME280;25151;45.566;9.382;2022-07-31T10:50:20;99720.81;;;28.10;41.27
39449;BME280;25151;45.566;9.382;2022-07-31T10:53:21;99723.94;;;28.12;40.95
39449;BME280;25151;45.566;9.382;2022-07-31T10:56:22;99713.38;;;28.13;41.26
39449;BME280;25151;45.566;9.382;2022-07-31T10:59:29;99711.06;;;28.11;41.60
39449;BME280;25151;45.566;9.382;2022-07-31T11:02:31;99710.78;;;28.15;41.68
39449;BME280;25151;45.566;9.382;2022-07-31T11:05:32;99703.88;;;28.16;41.52
39449;BME280;25151;45.566;9.382;2022-07-31T11:08:43;99701.50;;;28.14;41.23
39449;BME280;25151;45.566;9.382;2022-07-31T11:11:44;99696.63;;;28.15;41.32
39449;BME280;25151;45.566;9.382;2022-07-31T11:14:45;99702.28;;;28.15;41.58
39449;BME280;25151;45.566;9.382;2022-07-31T11:17:46;99689.69;;;28.16;41.40
39449;BME280;25151;45.566;9.382;2022-07-31T11:21:00;99687.88;;;28.18;41.47
39449;BME280;25151;45.566;9.382;2022-07-31T11:24:17;99682.97;;;28.19;41.77
39449;BME280;25151;45.566;9.382;2022-07-31T11:27:28;99678.88;;;28.20;41.69
39449;BME280;25151;45.566;9.382;2022-07-31T11:30:30;99673.22;;;28.20;41.57
39449;BME280;25151;45.566;9.382;2022-07-31T11:33:38;99672.69;;;28.22;41.96
39449;BME280;25151;45.566;9.382;2022-07-31T11:36:42;99672.44;;;28.19;41.88
39449;BME280;25151;45.566;9.382;2022-07-31T11:39:42;99669.09;;;28.21;41.69
39449;BME280;25151;45.566;9.382;2022-07-31T11:42:43;99670.63;;;28.22;41.98
39449;BME280;25151;45.566;9.382;2022-07-31T11:45:47;99663.44;;;28.21;41.62
39449;BME280;25151;45.566;9.382;2022-07-31T11:48:48;99665.75;;;28.23;42.06
39449;BME280;25151;45.566;9.382;2022-07-31T11:51:48;99659.81;;;28.21;41.86
39449;BME280;25151;45.566;9.382;2022-07-31T11:54:49;99656.22;;;28.20;42.05
39449;BME280;25151;45.566;9.382;2022-07-31T11:57:50;99660.06;;;28.23;42.18
39449;BME280;25151;45.566;9.382;2022-07-31T12:00:53;99651.56;;;28.23;41.77
39449;BME280;25151;45.566;9.382;2022-07-31T12:03:55;99649.50;;;28.23;42.14
39449;BME280;25151;45.566;9.382;2022-07-31T12:06:57;99636.63;;;28.22;42.08
39449;BME280;25151;45.566;9.382;2022-07-31T12:09:58;99649.50;;;28.23;42.36
39449;BME280;25151;45.566;9.382;2022-07-31T12:13:01;99638.16;;;28.23;41.98
39449;BME280;25151;45.566;9.382;2022-07-31T12:16:04;99636.13;;;28.24;42.36
39449;BME280;25151;45.566;9.382;2022-07-31T12:19:05;99634.31;;;28.26;42.17
39449;BME280;25151;45.566;9.382;2022-07-31T12:22:17;99627.63;;;28.24;42.05
39449;BME280;25151;45.566;9.382;2022-07-31T12:25:18;99619.88;;;28.24;42.09
39449;BME280;25151;45.566;9.382;2022-07-31T12:28:19;99623.50;;;28.25;42.35
39449;BME280;25151;45.566;9.382;2022-07-31T12:31:20;99623.75;;;28.27;42.35
39449;BME280;25151;45.566;9.382;2022-07-31T12:34:34;99620.91;;;28.27;42.32
39449;BME280;25151;45.566;9.382;2022-07-31T12:37:47;99625.31;;;28.28;42.14
39449;BME280;25151;45.566;9.382;2022-07-31T12:40:48;99629.16;;;28.25;42.13
39449;BME280;25151;45.566;9.382;2022-07-31T12:43:49;99624.56;;;28.27;42.09
39449;BME280;25151;45.566;9.382;2022-07-31T12:46:50;99615.53;;;28.29;42.48
39449;BME280;25151;45.566;9.382;2022-07-31T12:49:52;99607.53;;;28.27;42.49
39449;BME280;25151;45.566;9.382;2022-07-31T12:52:56;99616.81;;;28.28;42.50
39449;BME280;25151;45.566;9.382;2022-07-31T12:55:57;99610.63;;;28.29;42.30
39449;BME280;25151;45.566;9.382;2022-07-31T12:58:58;99606.25;;;28.28;42.38
39449;BME280;25151;45.566;9.382;2022-07-31T13:02:04;99602.41;;;28.31;42.55
39449;BME280;25151;45.566;9.382;2022-07-31T13:05:05;99605.25;;;28.31;42.86
39449;BME280;25151;45.566;9.382;2022-07-31T13:08:06;99601.09;;;28.32;43.05
39449;BME280;25151;45.566;9.382;2022-07-31T13:11:07;99598.28;;;28.32;43.10
39449;BME280;25151;45.566;9.382;2022-07-31T13:14:08;99596.97;;;28.33;43.06
39449;BME280;25151;45.566;9.382;2022-07-31T13:17:09;99591.31;;;28.33;43.01
39449;BME280;25151;45.566;9.382;2022-07-31T13:20:10;99590.31;;;28.36;43.03
39449;BME280;25151;45.566;9.382;2022-07-31T13:23:10;99587.50;;;28.36;43.10
39449;BME280;25151;45.566;9.382;2022-07-31T13:26:11;99586.19;;;28.37;43.17
39449;BME280;25151;45.566;9.382;2022-07-31T13:29:11;99574.84;;;28.37;43.39
39449;BME280;25151;45.566;9.382;2022-07-31T13:32:12;99570.72;;;28.38;43.05
39449;BME280;25151;45.566;9.382;2022-07-31T13:35:13;99558.38;;;28.41;43.19
39449;BME280;25151;45.566;9.382;2022-07-31T13:38:14;99558.66;;;28.43;43.58
39449;BME280;25151;45.566;9.382;2022-07-31T13:41:14;99556.31;;;28.42;43.16
39449;BME280;25151;45.566;9.382;2022-07-31T13:44:23;99548.56;;;28.42;43.24
39449;BME280;25151;45.566;9.382;2022-07-31T13:47:23;99555.28;;;28.45;43.31
39449;BME280;25151;45.566;9.382;2022-07-31T13:50:24;99546.00;;;28.45;43.45
39449;BME280;25151;45.566;9.382;2022-07-31T13:53:24;99548.31;;;28.46;43.46
39449;BME280;25151;45.566;9.382;2022-07-31T13:56:25;99539.03;;;28.46;43.44
39449;BME280;25151;45.566;9.382;2022-07-31T13:59:26;99539.03;;;28.46;43.57
39449;BME280;25151;45.566;9.382;2022-07-31T14:02:28;99532.88;;;28.47;43.58
39449;BME280;25151;45.566;9.382;2022-07-31T14:05:29;99536.97;;;28.46;43.45
39449;BME280;25151;45.566;9.382;2022-07-31T14:08:29;99533.66;;;28.48;43.66
39449;BME280;25151;45.566;9.382;2022-07-31T14:11:30;99545.25;;;28.50;43.71
39449;BME280;25151;45.566;9.382;2022-07-31T14:14:30;99527.97;;;28.48;43.81
39449;BME280;25151;45.566;9.382;2022-07-31T14:17:31;99529.53;;;28.49;43.74
39449;BME280;25151;45.566;9.382;2022-07-31T14:20:33;99525.38;;;28.50;43.74
39449;BME280;25151;45.566;9.382;2022-07-31T14:23:33;99526.94;;;28.51;43.54
39449;BME280;25151;45.566;9.382;2022-07-31T14:26:34;99528.50;;;28.52;43.69
39449;BME280;25151;45.566;9.382;2022-07-31T14:29:34;99521.25;;;28.51;43.68
39449;BME280;25151;45.566;9.382;2022-07-31T14:32:35;99509.16;;;28.50;44.08
39449;BME280;25151;45.566;9.382;2022-07-31T14:35:36;99516.88;;;28.50;44.08
39449;BME280;25151;45.566;9.382;2022-07-31T14:38:39;99509.91;;;28.51;43.89
39449;BME280;25151;45.566;9.382;2022-07-31T14:41:40;99511.22;;;28.50;43.91
39449;BME280;25151;45.566;9.382;2022-07-31T14:44:40;99514.31;;;28.52;44.14
39449;BME280;25151;45.566;9.382;2022-07-31T14:47:41;99505.81;;;28.52;43.71
39449;BME280;25151;45.566;9.382;2022-07-31T14:50:41;99502.97;;;28.52;43.90
39449;BME280;25151;45.566;9.382;2022-07-31T14:53:42;99503.75;;;28.52;44.05
39449;BME280;25151;45.566;9.382;2022-07-31T14:56:43;99507.59;;;28.55;44.11
39449;BME280;25151;45.566;9.382;2022-07-31T14:59:43;99496.78;;;28.53;43.87
39449;BME280;25151;45.566;9.382;2022-07-31T15:02:44;99491.88;;;28.54;43.81
39449;BME280;25151;45.566;9.382;2022-07-31T15:05:44;99490.59;;;28.55;43.88
39449;BME280;25151;45.566;9.382;2022-07-31T15:08:45;99493.41;;;28.55;43.88
39449;BME280;25151;45.566;9.382;2022-07-31T15:11:46;99489.81;;;28.54;44.27
39449;BME280;25151;45.566;9.382;2022-07-31T15:14:47;99483.38;;;28.54;43.76
39449;BME280;25151;45.566;9.382;2022-07-31T15:17:48;99487.25;;;28.56;43.88
39449;BME280;25151;45.566;9.382;2022-07-31T15:20:48;99487.75;;;28.55;43.89
39449;BME280;25151;45.566;9.382;2022-07-31T15:23:51;99479.25;;;28.55;44.20
39449;BME280;25151;45.566;9.382;2022-07-31T15:26:52;99478.75;;;28.56;43.88
39449;BME280;25151;45.566;9.382;2022-07-31T15:29:52;99477.97;;;28.56;44.17
39449;BME280;25151;45.566;9.382;2022-07-31T15:32:54;99478.75;;;28.56;44.16
39449;BME280;25151;45.566;9.382;2022-07-31T15:35:55;99479.25;;;28.55;44.15
39449;BME280;25151;45.566;9.382;2022-07-31T15:38:57;99479.78;;;28.59;43.93
39449;BME280;25151;45.566;9.382;2022-07-31T15:41:58;99469.72;;;28.58;44.04
39449;BME280;25151;45.566;9.382;2022-07-31T15:44:58;99469.47;;;28.56;44.40
39449;BME280;25151;45.566;9.382;2022-07-31T15:48:01;99461.72;;;28.56;44.21
39449;BME280;25151;45.566;9.382;2022-07-31T15:51:03;99459.38;;;28.55;44.15
39449;BME280;25151;45.566;9.382;2022-07-31T15:54:04;99452.19;;;28.54;43.94
39449;BME280;25151;45.566;9.382;2022-07-31T15:57:05;99450.63;;;28.53;44.56
39449;BME280;25151;45.566;9.382;2022-07-31T16:00:06;99452.94;;;28.54;44.14
39449;BME280;25151;45.566;9.382;2022-07-31T16:03:11;99452.94;;;28.54;44.34
39449;BME280;25151;45.566;9.382;2022-07-31T16:06:12;99450.63;;;28.53;44.37
39449;BME280;25151;45.566;9.382;2022-07-31T16:09:12;99440.81;;;28.54;44.21
39449;BME280;25151;45.566;9.382;2022-07-31T16:12:14;99445.72;;;28.53;44.61